KNJK/NJK METAR and TAF weather

Enter ICAO airport designator
Station Type Date Time Source
KNJK METAR 2020/09/18 14:56 UTC NOAA

KNJK 181456Z 00000KT 10SM CLR 28/07 A2982 RMK SLP115 T02780072 53014


Station Type Date Time Source
KNJK Decoded METAR 2020/09/18 14:56 UTC NOAA

El Centro, Naval Air Facility, CA, United States (KNJK) 32-49-30N 115-39-38W -13M
Sep 18, 2020 - 10:56 AM EDT / 2020.09.18 1456 UTC
Wind: Calm:0
Visibility: 10 mile(s):0
Sky conditions: clear
Temperature: 82.0 F (27.8 C)
Dew Point: 45.0 F (7.2 C)
Relative Humidity: 27%
Pressure (altimeter): 29.82 in. Hg (1009 hPa)
Pressure tendency: 0.04 inches (1.4 hPa) higher than three hours ago
ob: KNJK 181456Z 00000KT 10SM CLR 28/07 A2982 RMK SLP115 T02780072 53014
cycle: 15

Station Type Date Time Source
KNJK TAF 2020/09/18 15:09 UTC NOAA

TAF KNJK 1815/1915 15006KT 9999 SCT250 QNH2968INS
FM190500 25006KT 9999 SKC QNH2974INS T42/1823Z T24/1913Z FS30130

Example: see airport list